sensor_id;sensor_type;location;lat;lon;timestamp;pressure;altitude;pressure_sealevel;temperature;humidity
74310;BME280;62722;51.142;17.052;2023-05-07T00:01:20;100634.78;;;8.33;94.75
74310;BME280;62722;51.142;17.052;2023-05-07T00:03:47;100635.56;;;8.35;94.88
74310;BME280;62722;51.142;17.052;2023-05-07T00:06:15;100635.69;;;8.32;94.03
74310;BME280;62722;51.142;17.052;2023-05-07T00:08:42;100642.66;;;8.33;94.34
74310;BME280;62722;51.142;17.052;2023-05-07T00:11:11;100639.38;;;8.28;94.80
74310;BME280;62722;51.142;17.052;2023-05-07T00:13:39;100640.50;;;8.24;94.39
74310;BME280;62722;51.142;17.052;2023-05-07T00:16:06;100640.25;;;8.28;94.67
74310;BME280;62722;51.142;17.052;2023-05-07T00:18:33;100637.25;;;8.36;94.63
74310;BME280;62722;51.142;17.052;2023-05-07T00:21:01;100645.13;;;8.36;94.75
74310;BME280;62722;51.142;17.052;2023-05-07T00:23:28;100645.84;;;8.40;94.68
74310;BME280;62722;51.142;17.052;2023-05-07T00:25:55;100644.69;;;8.45;94.81
74310;BME280;62722;51.142;17.052;2023-05-07T00:28:24;100646.47;;;8.45;94.05
74310;BME280;62722;51.142;17.052;2023-05-07T00:30:52;100642.34;;;8.39;93.88
74310;BME280;62722;51.142;17.052;2023-05-07T00:33:19;100644.28;;;8.36;94.15
74310;BME280;62722;51.142;17.052;2023-05-07T00:35:48;100632.59;;;8.24;94.43
74310;BME280;62722;51.142;17.052;2023-05-07T00:38:15;100642.38;;;8.20;94.22
74310;BME280;62722;51.142;17.052;2023-05-07T00:40:43;100646.81;;;8.20;94.79
74310;BME280;62722;51.142;17.052;2023-05-07T00:43:11;100652.69;;;8.25;94.88
74310;BME280;62722;51.142;17.052;2023-05-07T00:45:40;100650.06;;;8.25;94.72
74310;BME280;62722;51.142;17.052;2023-05-07T00:48:07;100656.91;;;8.29;94.83
74310;BME280;62722;51.142;17.052;2023-05-07T00:50:34;100655.06;;;8.31;94.37
74310;BME280;62722;51.142;17.052;2023-05-07T00:53:02;100656.16;;;8.25;94.67
74310;BME280;62722;51.142;17.052;2023-05-07T00:55:29;100659.38;;;8.32;94.58
74310;BME280;62722;51.142;17.052;2023-05-07T00:57:57;100658.66;;;8.28;94.80
74310;BME280;62722;51.142;17.052;2023-05-07T01:00:24;100661.38;;;8.27;95.01
74310;BME280;62722;51.142;17.052;2023-05-07T01:02:53;100658.03;;;8.23;94.94
74310;BME280;62722;51.142;17.052;2023-05-07T01:05:22;100655.31;;;8.25;95.04
74310;BME280;62722;51.142;17.052;2023-05-07T01:07:52;100658.72;;;8.27;95.29
74310;BME280;62722;51.142;17.052;2023-05-07T01:10:21;100662.16;;;8.29;95.25
74310;BME280;62722;51.142;17.052;2023-05-07T01:12:50;100660.72;;;8.22;94.69
74310;BME280;62722;51.142;17.052;2023-05-07T01:15:18;100659.00;;;8.21;95.52
74310;BME280;62722;51.142;17.052;2023-05-07T01:17:45;100664.97;;;8.24;95.42
74310;BME280;62722;51.142;17.052;2023-05-07T01:20:14;100661.81;;;8.18;95.35
74310;BME280;62722;51.142;17.052;2023-05-07T01:22:43;100654.06;;;8.15;96.30
74310;BME280;62722;51.142;17.052;2023-05-07T01:25:10;100655.53;;;8.20;96.68
74310;BME280;62722;51.142;17.052;2023-05-07T01:27:37;100655.16;;;8.28;96.39
74310;BME280;62722;51.142;17.052;2023-05-07T01:30:06;100655.63;;;8.19;96.11
74310;BME280;62722;51.142;17.052;2023-05-07T01:32:40;100661.81;;;8.18;95.50
74310;BME280;62722;51.142;17.052;2023-05-07T01:35:11;100656.00;;;8.11;95.55
74310;BME280;62722;51.142;17.052;2023-05-07T01:37:39;100657.94;;;8.08;95.41
74310;BME280;62722;51.142;17.052;2023-05-07T01:40:09;100661.47;;;8.07;95.56
74310;BME280;62722;51.142;17.052;2023-05-07T01:42:36;100658.84;;;8.07;95.78
74310;BME280;62722;51.142;17.052;2023-05-07T01:45:05;100669.31;;;8.08;95.61
74310;BME280;62722;51.142;17.052;2023-05-07T01:47:33;100659.66;;;8.09;95.33
74310;BME280;62722;51.142;17.052;2023-05-07T01:50:00;100666.59;;;8.10;95.43
74310;BME280;62722;51.142;17.052;2023-05-07T01:52:28;100669.22;;;8.10;95.39
74310;BME280;62722;51.142;17.052;2023-05-07T01:54:56;100674.47;;;8.10;95.26
74310;BME280;62722;51.142;17.052;2023-05-07T01:57:24;100672.00;;;8.07;94.88
74310;BME280;62722;51.142;17.052;2023-05-07T01:59:52;100671.06;;;8.08;95.03
74310;BME280;62722;51.142;17.052;2023-05-07T02:02:19;100670.28;;;8.06;94.52
74310;BME280;62722;51.142;17.052;2023-05-07T02:04:46;100670.16;;;8.09;94.29
74310;BME280;62722;51.142;17.052;2023-05-07T02:07:14;100675.53;;;8.06;94.24
74310;BME280;62722;51.142;17.052;2023-05-07T02:09:41;100672.47;;;7.98;94.53
74310;BME280;62722;51.142;17.052;2023-05-07T02:12:08;100676.66;;;8.02;94.78
74310;BME280;62722;51.142;17.052;2023-05-07T02:14:37;100685.13;;;8.07;94.17
74310;BME280;62722;51.142;17.052;2023-05-07T02:17:04;100678.97;;;8.08;93.71
74310;BME280;62722;51.142;17.052;2023-05-07T02:19:32;100686.75;;;8.09;93.92
74310;BME280;62722;51.142;17.052;2023-05-07T02:21:59;100676.25;;;8.09;94.04
74310;BME280;62722;51.142;17.052;2023-05-07T02:24:26;100678.97;;;8.08;94.02
74310;BME280;62722;51.142;17.052;2023-05-07T02:26:53;100679.97;;;8.05;93.81
74310;BME280;62722;51.142;17.052;2023-05-07T02:29:21;100679.13;;;8.05;93.37
74310;BME280;62722;51.142;17.052;2023-05-07T02:31:49;100678.25;;;8.04;93.40
74310;BME280;62722;51.142;17.052;2023-05-07T02:34:19;100683.56;;;8.03;93.25
74310;BME280;62722;51.142;17.052;2023-05-07T02:36:46;100690.75;;;7.99;93.72
74310;BME280;62722;51.142;17.052;2023-05-07T02:39:14;100679.41;;;7.99;93.60
74310;BME280;62722;51.142;17.052;2023-05-07T02:41:41;100680.94;;;8.03;94.11
74310;BME280;62722;51.142;17.052;2023-05-07T02:44:08;100688.78;;;8.04;93.80
74310;BME280;62722;51.142;17.052;2023-05-07T02:46:35;100686.66;;;7.94;94.26
74310;BME280;62722;51.142;17.052;2023-05-07T02:49:04;100699.97;;;7.91;94.23
74310;BME280;62722;51.142;17.052;2023-05-07T02:51:31;100698.41;;;7.87;93.93
74310;BME280;62722;51.142;17.052;2023-05-07T02:53:59;100699.16;;;7.89;93.84
74310;BME280;62722;51.142;17.052;2023-05-07T02:56:27;100698.41;;;7.87;93.67
74310;BME280;62722;51.142;17.052;2023-05-07T02:58:54;100695.78;;;7.87;93.94
74310;BME280;62722;51.142;17.052;2023-05-07T03:01:22;100701.03;;;7.87;93.55
74310;BME280;62722;51.142;17.052;2023-05-07T03:03:49;100687.09;;;7.84;92.83
74310;BME280;62722;51.142;17.052;2023-05-07T03:06:18;100694.72;;;7.91;93.48
74310;BME280;62722;51.142;17.052;2023-05-07T03:08:45;100690.06;;;7.96;92.53
74310;BME280;62722;51.142;17.052;2023-05-07T03:11:12;100699.97;;;7.91;91.81
74310;BME280;62722;51.142;17.052;2023-05-07T03:13:40;100695.28;;;7.78;92.08
74310;BME280;62722;51.142;17.052;2023-05-07T03:16:07;100704.00;;;7.79;92.60
74310;BME280;62722;51.142;17.052;2023-05-07T03:18:35;100713.66;;;7.78;92.28
74310;BME280;62722;51.142;17.052;2023-05-07T03:21:02;100708.41;;;7.78;92.20
74310;BME280;62722;51.142;17.052;2023-05-07T03:23:31;100714.59;;;7.77;92.92
74310;BME280;62722;51.142;17.052;2023-05-07T03:25:58;100718.00;;;7.79;92.65
74310;BME280;62722;51.142;17.052;2023-05-07T03:28:26;100715.09;;;7.86;93.70
74310;BME280;62722;51.142;17.052;2023-05-07T03:30:53;100718.97;;;7.77;92.45
74310;BME280;62722;51.142;17.052;2023-05-07T03:33:20;100726.00;;;7.76;92.14
74310;BME280;62722;51.142;17.052;2023-05-07T03:35:47;100721.69;;;7.75;92.16
74310;BME280;62722;51.142;17.052;2023-05-07T03:38:15;100726.16;;;7.73;91.63
74310;BME280;62722;51.142;17.052;2023-05-07T03:40:43;100725.38;;;7.71;91.92
74310;BME280;62722;51.142;17.052;2023-05-07T03:43:11;100724.69;;;7.68;91.53
74310;BME280;62722;51.142;17.052;2023-05-07T03:45:38;100724.59;;;7.69;91.82
74310;BME280;62722;51.142;17.052;2023-05-07T03:48:06;100728.16;;;7.68;91.67
74310;BME280;62722;51.142;17.052;2023-05-07T03:50:33;100735.69;;;7.76;92.23
74310;BME280;62722;51.142;17.052;2023-05-07T03:53:00;100739.44;;;7.70;91.74
74310;BME280;62722;51.142;17.052;2023-05-07T03:55:28;100738.44;;;7.73;91.50
74310;BME280;62722;51.142;17.052;2023-05-07T03:57:57;100747.63;;;7.83;91.38
74310;BME280;62722;51.142;17.052;2023-05-07T04:00:24;100750.47;;;7.78;91.05
74310;BME280;62722;51.142;17.052;2023-05-07T04:02:52;100748.09;;;7.72;91.38
74310;BME280;62722;51.142;17.052;2023-05-07T04:05:19;100759.25;;;7.77;91.46
74310;BME280;62722;51.142;17.052;2023-05-07T04:07:46;100767.84;;;7.81;91.93
74310;BME280;62722;51.142;17.052;2023-05-07T04:10:13;100769.75;;;7.77;92.65
74310;BME280;62722;51.142;17.052;2023-05-07T04:12:41;100761.88;;;7.77;92.91
74310;BME280;62722;51.142;17.052;2023-05-07T04:15:10;100761.03;;;7.77;92.62
74310;BME280;62722;51.142;17.052;2023-05-07T04:17:37;100766.56;;;7.90;92.83
74310;BME280;62722;51.142;17.052;2023-05-07T04:20:08;100775.38;;;7.89;92.93
74310;BME280;62722;51.142;17.052;2023-05-07T04:22:36;100779.06;;;7.84;93.03
74310;BME280;62722;51.142;17.052;2023-05-07T04:25:04;100781.69;;;7.84;92.96
74310;BME280;62722;51.142;17.052;2023-05-07T04:27:32;100782.00;;;7.78;92.86
74310;BME280;62722;51.142;17.052;2023-05-07T04:29:59;100788.59;;;7.68;93.22
74310;BME280;62722;51.142;17.052;2023-05-07T04:32:28;100791.47;;;7.62;93.95
74310;BME280;62722;51.142;17.052;2023-05-07T04:34:55;100784.75;;;7.57;93.55
74310;BME280;62722;51.142;17.052;2023-05-07T04:37:23;100791.47;;;7.62;93.56
74310;BME280;62722;51.142;17.052;2023-05-07T04:39:50;100796.13;;;7.76;94.05
74310;BME280;62722;51.142;17.052;2023-05-07T04:42:18;100803.63;;;7.83;93.39
74310;BME280;62722;51.142;17.052;2023-05-07T04:44:45;100802.16;;;7.78;93.48
74310;BME280;62722;51.142;17.052;2023-05-07T04:47:12;100804.56;;;7.82;93.17
74310;BME280;62722;51.142;17.052;2023-05-07T04:49:41;100800.88;;;7.87;93.28
74310;BME280;62722;51.142;17.052;2023-05-07T04:52:08;100803.56;;;7.85;92.45
74310;BME280;62722;51.142;17.052;2023-05-07T04:54:36;100809.69;;;7.86;91.37
74310;BME280;62722;51.142;17.052;2023-05-07T04:57:03;100807.72;;;7.91;91.53
74310;BME280;62722;51.142;17.052;2023-05-07T04:59:31;100809.19;;;7.96;91.25
74310;BME280;62722;51.142;17.052;2023-05-07T05:01:59;100809.13;;;7.98;90.54
74310;BME280;62722;51.142;17.052;2023-05-07T05:04:26;100826.31;;;7.86;90.37
74310;BME280;62722;51.142;17.052;2023-05-07T05:06:55;100826.31;;;7.86;90.33
74310;BME280;62722;51.142;17.052;2023-05-07T05:09:23;100820.06;;;7.89;90.65
74310;BME280;62722;51.142;17.052;2023-05-07T05:11:50;100832.53;;;7.83;90.26
74310;BME280;62722;51.142;17.052;2023-05-07T05:14:17;100840.22;;;7.88;90.48
74310;BME280;62722;51.142;17.052;2023-05-07T05:16:45;100841.06;;;7.89;91.71
74310;BME280;62722;51.142;17.052;2023-05-07T05:19:12;100838.88;;;7.79;91.76
74310;BME280;62722;51.142;17.052;2023-05-07T05:21:39;100846.78;;;7.79;92.15
74310;BME280;62722;51.142;17.052;2023-05-07T05:24:08;100845.91;;;7.79;91.15
74310;BME280;62722;51.142;17.052;2023-05-07T05:26:35;100851.66;;;7.87;91.33
74310;BME280;62722;51.142;17.052;2023-05-07T05:29:03;100850.16;;;7.81;91.10
74310;BME280;62722;51.142;17.052;2023-05-07T05:31:30;100851.06;;;7.80;90.25
74310;BME280;62722;51.142;17.052;2023-05-07T05:33:57;100863.59;;;7.75;90.33
74310;BME280;62722;51.142;17.052;2023-05-07T05:36:25;100856.91;;;7.68;90.21
74310;BME280;62722;51.142;17.052;2023-05-07T05:38:52;100850.69;;;7.69;90.55
74310;BME280;62722;51.142;17.052;2023-05-07T05:41:21;100848.59;;;7.77;91.15
74310;BME280;62722;51.142;17.052;2023-05-07T05:43:48;100858.91;;;7.82;90.38
74310;BME280;62722;51.142;17.052;2023-05-07T05:46:16;100855.47;;;7.80;89.66
74310;BME280;62722;51.142;17.052;2023-05-07T05:48:43;100855.56;;;7.78;89.67
74310;BME280;62722;51.142;17.052;2023-05-07T05:51:10;100854.56;;;7.81;89.47
74310;BME280;62722;51.142;17.052;2023-05-07T05:53:38;100857.00;;;7.86;89.39
74310;BME280;62722;51.142;17.052;2023-05-07T05:56:06;100862.38;;;7.82;88.98
74310;BME280;62722;51.142;17.052;2023-05-07T05:58:34;100850.16;;;7.81;88.65
74310;BME280;62722;51.142;17.052;2023-05-07T06:01:02;100865.59;;;7.89;89.10
74310;BME280;62722;51.142;17.052;2023-05-07T06:03:31;100869.06;;;7.90;88.89
74310;BME280;62722;51.142;17.052;2023-05-07T06:05:59;100869.22;;;7.87;88.63
74310;BME280;62722;51.142;17.052;2023-05-07T06:08:29;100877.88;;;7.89;88.98
74310;BME280;62722;51.142;17.052;2023-05-07T06:10:57;100874.47;;;7.87;88.10
74310;BME280;62722;51.142;17.052;2023-05-07T06:13:24;100874.97;;;7.95;87.71
74310;BME280;62722;51.142;17.052;2023-05-07T06:15:53;100871.94;;;8.04;87.19
74310;BME280;62722;51.142;17.052;2023-05-07T06:18:20;100879.75;;;8.05;87.69
74310;BME280;62722;51.142;17.052;2023-05-07T06:20:47;100870.78;;;8.09;87.10
74310;BME280;62722;51.142;17.052;2023-05-07T06:23:14;100876.13;;;8.08;86.75
74310;BME280;62722;51.142;17.052;2023-05-07T06:25:42;100882.88;;;8.13;86.90
74310;BME280;62722;51.142;17.052;2023-05-07T06:28:09;100881.03;;;8.15;85.37
74310;BME280;62722;51.142;17.052;2023-05-07T06:30:37;100881.38;;;8.08;84.29
74310;BME280;62722;51.142;17.052;2023-05-07T06:33:09;100888.06;;;8.15;84.92
74310;BME280;62722;51.142;17.052;2023-05-07T06:35:37;100892.13;;;8.22;84.50
74310;BME280;62722;51.142;17.052;2023-05-07T06:38:04;100896.81;;;8.15;85.17
74310;BME280;62722;51.142;17.052;2023-05-07T06:40:32;100906.63;;;8.12;85.62
74310;BME280;62722;51.142;17.052;2023-05-07T06:42:59;100905.69;;;8.13;85.84
74310;BME280;62722;51.142;17.052;2023-05-07T06:45:27;100906.88;;;8.06;84.86
74310;BME280;62722;51.142;17.052;2023-05-07T06:47:54;100912.97;;;8.06;85.41
74310;BME280;62722;51.142;17.052;2023-05-07T06:50:23;100913.84;;;8.07;84.74
74310;BME280;62722;51.142;17.052;2023-05-07T06:52:50;100919.09;;;8.07;84.42
74310;BME280;62722;51.142;17.052;2023-05-07T06:55:18;100920.25;;;8.01;84.17
74310;BME280;62722;51.142;17.052;2023-05-07T06:57:45;100916.81;;;7.99;84.66
74310;BME280;62722;51.142;17.052;2023-05-07T07:00:13;100916.47;;;8.07;84.65
74310;BME280;62722;51.142;17.052;2023-05-07T07:02:41;100921.53;;;8.11;83.96
74310;BME280;62722;51.142;17.052;2023-05-07T07:05:09;100929.38;;;8.13;82.78
74310;BME280;62722;51.142;17.052;2023-05-07T07:07:37;100923.09;;;8.15;82.89
74310;BME280;62722;51.142;17.052;2023-05-07T07:10:06;100930.19;;;8.13;82.49
74310;BME280;62722;51.142;17.052;2023-05-07T07:12:33;100931.13;;;8.12;82.34
74310;BME280;62722;51.142;17.052;2023-05-07T07:15:00;100933.13;;;8.26;81.88
74310;BME280;62722;51.142;17.052;2023-05-07T07:17:28;100935.75;;;8.26;81.64
74310;BME280;62722;51.142;17.052;2023-05-07T07:19:55;100929.34;;;8.33;81.39
74310;BME280;62722;51.142;17.052;2023-05-07T07:22:22;100935.31;;;8.37;80.76
74310;BME280;62722;51.142;17.052;2023-05-07T07:24:51;100938.03;;;8.35;81.07
74310;BME280;62722;51.142;17.052;2023-05-07T07:27:18;100932.28;;;8.46;82.64
74310;BME280;62722;51.142;17.052;2023-05-07T07:29:46;100927.41;;;8.55;82.13
74310;BME280;62722;51.142;17.052;2023-05-07T07:32:13;100940.38;;;8.60;81.35
74310;BME280;62722;51.142;17.052;2023-05-07T07:34:40;100945.19;;;8.50;81.00
74310;BME280;62722;51.142;17.052;2023-05-07T07:37:08;100950.94;;;8.40;81.58
74310;BME280;62722;51.142;17.052;2023-05-07T07:39:35;100948.97;;;8.45;82.07
74310;BME280;62722;51.142;17.052;2023-05-07T07:42:05;100953.22;;;8.47;82.15
74310;BME280;62722;51.142;17.052;2023-05-07T07:44:32;100960.25;;;8.47;82.05
74310;BME280;62722;51.142;17.052;2023-05-07T07:46:59;100963.75;;;8.47;82.25
74310;BME280;62722;51.142;17.052;2023-05-07T07:49:27;100978.47;;;8.51;81.47
74310;BME280;62722;51.142;17.052;2023-05-07T07:51:54;100967.38;;;8.45;82.35
74310;BME280;62722;51.142;17.052;2023-05-07T07:54:22;100979.44;;;8.30;83.06
74310;BME280;62722;51.142;17.052;2023-05-07T07:56:49;100965.75;;;8.22;83.31
74310;BME280;62722;51.142;17.052;2023-05-07T07:59:18;100975.91;;;8.31;83.52
74310;BME280;62722;51.142;17.052;2023-05-07T08:01:46;100982.84;;;8.32;82.37
74310;BME280;62722;51.142;17.052;2023-05-07T08:04:14;100984.72;;;8.30;82.04
74310;BME280;62722;51.142;17.052;2023-05-07T08:06:41;100971.28;;;8.16;82.15
74310;BME280;62722;51.142;17.052;2023-05-07T08:09:09;100974.06;;;8.13;82.59
74310;BME280;62722;51.142;17.052;2023-05-07T08:11:36;100972.53;;;8.07;82.77
74310;BME280;62722;51.142;17.052;2023-05-07T08:14:03;100982.34;;;8.04;82.61
74310;BME280;62722;51.142;17.052;2023-05-07T08:16:32;100987.22;;;8.13;83.37
74310;BME280;62722;51.142;17.052;2023-05-07T08:19:00;100994.16;;;8.14;82.90
74310;BME280;62722;51.142;17.052;2023-05-07T08:21:27;100989.75;;;8.14;82.38
74310;BME280;62722;51.142;17.052;2023-05-07T08:23:54;100993.38;;;8.12;82.95
74310;BME280;62722;51.142;17.052;2023-05-07T08:26:21;100994.63;;;8.03;83.08
74310;BME280;62722;51.142;17.052;2023-05-07T08:28:49;100998.63;;;8.12;83.70
74310;BME280;62722;51.142;17.052;2023-05-07T08:31:16;100987.91;;;8.16;82.58
74310;BME280;62722;51.142;17.052;2023-05-07T08:33:45;100994.94;;;8.16;82.51
74310;BME280;62722;51.142;17.052;2023-05-07T08:36:12;101001.44;;;8.27;82.86
74310;BME280;62722;51.142;17.052;2023-05-07T08:38:39;101006.72;;;8.27;82.77
74310;BME280;62722;51.142;17.052;2023-05-07T08:41:09;101007.53;;;8.28;83.18
74310;BME280;62722;51.142;17.052;2023-05-07T08:43:38;101007.63;;;8.26;82.64
74310;BME280;62722;51.142;17.052;2023-05-07T08:46:09;101013.13;;;8.20;83.56
74310;BME280;62722;51.142;17.052;2023-05-07T08:48:38;101021.38;;;8.13;83.72
74310;BME280;62722;51.142;17.052;2023-05-07T08:51:11;101029.50;;;8.07;84.35
74310;BME280;62722;51.142;17.052;2023-05-07T08:53:40;101030.56;;;8.03;84.08
74310;BME280;62722;51.142;17.052;2023-05-07T08:56:09;101038.44;;;8.03;84.25
74310;BME280;62722;51.142;17.052;2023-05-07T08:58:37;101045.44;;;8.04;83.56
74310;BME280;62722;51.142;17.052;2023-05-07T09:01:09;101038.06;;;8.12;84.72
74310;BME280;62722;51.142;17.052;2023-05-07T09:03:39;101041.88;;;8.05;83.15
74310;BME280;62722;51.142;17.052;2023-05-07T09:06:07;101040.84;;;8.09;82.88
74310;BME280;62722;51.142;17.052;2023-05-07T09:08:35;101040.63;;;8.13;82.61
74310;BME280;62722;51.142;17.052;2023-05-07T09:11:03;101040.28;;;8.21;82.24
74310;BME280;62722;51.142;17.052;2023-05-07T09:13:30;101041.88;;;8.25;81.01
74310;BME280;62722;51.142;17.052;2023-05-07T09:15:57;101042.66;;;8.27;82.45
74310;BME280;62722;51.142;17.052;2023-05-07T09:18:25;101041.72;;;8.29;80.54
74310;BME280;62722;51.142;17.052;2023-05-07T09:20:52;101033.63;;;8.34;80.83
74310;BME280;62722;51.142;17.052;2023-05-07T09:23:21;101042.28;;;8.36;81.01
74310;BME280;62722;51.142;17.052;2023-05-07T09:25:49;101041.44;;;8.36;80.87
74310;BME280;62722;51.142;17.052;2023-05-07T09:28:16;101042.94;;;8.41;81.08
74310;BME280;62722;51.142;17.052;2023-05-07T09:30:44;101050.69;;;8.44;81.32
74310;BME280;62722;51.142;17.052;2023-05-07T09:33:12;101040.19;;;8.44;81.91
74310;BME280;62722;51.142;17.052;2023-05-07T09:35:39;101043.31;;;8.52;81.64
74310;BME280;62722;51.142;17.052;2023-05-07T09:38:07;101039.63;;;8.56;81.32
74310;BME280;62722;51.142;17.052;2023-05-07T09:40:36;101037.19;;;8.72;81.81
74310;BME280;62722;51.142;17.052;2023-05-07T09:43:10;101044.78;;;8.78;80.35
74310;BME280;62722;51.142;17.052;2023-05-07T09:45:38;101038.09;;;8.90;80.57
74310;BME280;62722;51.142;17.052;2023-05-07T09:48:06;101044.63;;;9.00;80.09
74310;BME280;62722;51.142;17.052;2023-05-07T09:50:36;101045.63;;;9.16;79.68
74310;BME280;62722;51.142;17.052;2023-05-07T09:53:10;101045.19;;;9.25;79.29
74310;BME280;62722;51.142;17.052;2023-05-07T09:55:42;101048.47;;;9.30;78.34
74310;BME280;62722;51.142;17.052;2023-05-07T09:58:12;101043.47;;;9.24;77.66
74310;BME280;62722;51.142;17.052;2023-05-07T10:00:42;101041.31;;;9.32;78.78
74310;BME280;62722;51.142;17.052;2023-05-07T10:03:10;101040.59;;;9.47;76.94
74310;BME280;62722;51.142;17.052;2023-05-07T10:05:38;101043.78;;;9.54;75.76
74310;BME280;62722;51.142;17.052;2023-05-07T10:08:06;101046.50;;;9.52;76.05
74310;BME280;62722;51.142;17.052;2023-05-07T10:10:35;101040.47;;;9.67;75.90
74310;BME280;62722;51.142;17.052;2023-05-07T10:13:04;101050.78;;;9.72;75.09
74310;BME280;62722;51.142;17.052;2023-05-07T10:15:36;101056.34;;;9.66;73.92
74310;BME280;62722;51.142;17.052;2023-05-07T10:18:05;101056.03;;;9.72;73.59
74310;BME280;62722;51.142;17.052;2023-05-07T10:20:33;101053.88;;;9.80;74.02
74310;BME280;62722;51.142;17.052;2023-05-07T10:23:04;101066.53;;;9.91;73.45
74310;BME280;62722;51.142;17.052;2023-05-07T10:25:32;101065.44;;;9.95;73.52
74310;BME280;62722;51.142;17.052;2023-05-07T10:28:02;101055.69;;;9.97;73.75
74310;BME280;62722;51.142;17.052;2023-05-07T10:30:44;101064.69;;;9.93;72.27
74310;BME280;62722;51.142;17.052;2023-05-07T10:33:19;101058.03;;;9.86;72.23
74310;BME280;62722;51.142;17.052;2023-05-07T10:35:47;101061.13;;;9.94;71.70
74310;BME280;62722;51.142;17.052;2023-05-07T10:38:16;101060.28;;;9.93;71.85
74310;BME280;62722;51.142;17.052;2023-05-07T10:40:44;101061.75;;;9.82;71.91
74310;BME280;62722;51.142;17.052;2023-05-07T10:43:11;101059.69;;;9.87;72.98
74310;BME280;62722;51.142;17.052;2023-05-07T10:45:41;101059.41;;;9.93;72.84
74310;BME280;62722;51.142;17.052;2023-05-07T10:48:10;101059.69;;;9.87;72.50
74310;BME280;62722;51.142;17.052;2023-05-07T10:50:38;101055.22;;;9.89;73.57
74310;BME280;62722;51.142;17.052;2023-05-07T10:53:22;101060.03;;;9.81;72.64
74310;BME280;62722;51.142;17.052;2023-05-07T10:56:25;101061.91;;;9.78;73.56
74310;BME280;62722;51.142;17.052;2023-05-07T10:58:54;101051.19;;;9.82;73.94
74310;BME280;62722;51.142;17.052;2023-05-07T11:01:52;101059.47;;;9.91;73.63
74310;BME280;62722;51.142;17.052;2023-05-07T11:04:20;101064.84;;;9.90;73.00
74310;BME280;62722;51.142;17.052;2023-05-07T11:07:29;101050.50;;;9.78;72.25
74310;BME280;62722;51.142;17.052;2023-05-07T11:09:59;101052.34;;;9.76;73.01
74310;BME280;62722;51.142;17.052;2023-05-07T11:12:49;101064.16;;;9.86;74.34
74310;BME280;62722;51.142;17.052;2023-05-07T11:15:34;101054.31;;;9.90;74.10
74310;BME280;62722;51.142;17.052;2023-05-07T11:18:04;101061.91;;;9.96;73.52
74310;BME280;62722;51.142;17.052;2023-05-07T11:20:55;101063.28;;;9.86;73.10
74310;BME280;62722;51.142;17.052;2023-05-07T11:23:58;101070.72;;;9.77;72.96
74310;BME280;62722;51.142;17.052;2023-05-07T11:26:27;101072.56;;;9.75;73.66
74310;BME280;62722;51.142;17.052;2023-05-07T11:28:54;101074.44;;;9.73;72.71
74310;BME280;62722;51.142;17.052;2023-05-07T11:31:24;101082.81;;;9.82;73.71
74310;BME280;62722;51.142;17.052;2023-05-07T11:33:55;101073.13;;;9.82;72.45
74310;BME280;62722;51.142;17.052;2023-05-07T11:36:23;101090.81;;;9.80;71.93
74310;BME280;62722;51.142;17.052;2023-05-07T11:38:51;101090.91;;;9.96;72.20
74310;BME280;62722;51.142;17.052;2023-05-07T11:41:19;101090.75;;;9.99;71.42
74310;BME280;62722;51.142;17.052;2023-05-07T11:43:59;101094.25;;;9.99;70.93
74310;BME280;62722;51.142;17.052;2023-05-07T11:46:28;101099.88;;;9.92;72.14
74310;BME280;62722;51.142;17.052;2023-05-07T11:48:57;101092.13;;;9.89;72.26
74310;BME280;62722;51.142;17.052;2023-05-07T11:51:25;101105.00;;;9.95;71.23
74310;BME280;62722;51.142;17.052;2023-05-07T11:53:53;101110.28;;;9.95;70.95
74310;BME280;62722;51.142;17.052;2023-05-07T11:56:21;101106.28;;;10.05;71.68
74310;BME280;62722;51.142;17.052;2023-05-07T11:58:56;101104.56;;;10.04;70.80
74310;BME280;62722;51.142;17.052;2023-05-07T12:01:24;101104.25;;;10.10;70.48
74310;BME280;62722;51.142;17.052;2023-05-07T12:03:53;101099.63;;;10.15;70.68
74310;BME280;62722;51.142;17.052;2023-05-07T12:06:22;101102.97;;;10.18;70.38
74310;BME280;62722;51.142;17.052;2023-05-07T12:08:49;101104.75;;;10.18;70.33
74310;BME280;62722;51.142;17.052;2023-05-07T12:11:25;101103.81;;;10.19;70.97
74310;BME280;62722;51.142;17.052;2023-05-07T12:13:54;101107.69;;;10.12;71.18
74310;BME280;62722;51.142;17.052;2023-05-07T12:16:21;101110.84;;;10.01;71.35
74310;BME280;62722;51.142;17.052;2023-05-07T12:18:50;101111.91;;;10.16;72.72
74310;BME280;62722;51.142;17.052;2023-05-07T12:21:23;101106.63;;;10.16;70.76
74310;BME280;62722;51.142;17.052;2023-05-07T12:23:50;101112.66;;;10.18;71.84
74310;BME280;62722;51.142;17.052;2023-05-07T12:26:19;101120.59;;;10.18;70.90
74310;BME280;62722;51.142;17.052;2023-05-07T12:28:46;101120.94;;;10.10;70.24
74310;BME280;62722;51.142;17.052;2023-05-07T12:31:14;101122.22;;;10.02;69.80
74310;BME280;62722;51.142;17.052;2023-05-07T12:33:41;101123.47;;;9.95;70.70
74310;BME280;62722;51.142;17.052;2023-05-07T12:36:12;101122.47;;;9.97;71.43
74310;BME280;62722;51.142;17.052;2023-05-07T12:38:41;101128.16;;;10.07;72.39
74310;BME280;62722;51.142;17.052;2023-05-07T12:41:09;101129.06;;;10.06;71.52
74310;BME280;62722;51.142;17.052;2023-05-07T12:43:38;101123.78;;;10.06;70.97
74310;BME280;62722;51.142;17.052;2023-05-07T12:46:06;101125.19;;;10.13;71.20
74310;BME280;62722;51.142;17.052;2023-05-07T12:48:37;101126.91;;;10.14;70.40
74310;BME280;62722;51.142;17.052;2023-05-07T12:51:06;101131.53;;;10.09;70.22
74310;BME280;62722;51.142;17.052;2023-05-07T12:53:41;101125.00;;;10.17;71.19
74310;BME280;62722;51.142;17.052;2023-05-07T12:56:09;101135.09;;;10.27;70.89
74310;BME280;62722;51.142;17.052;2023-05-07T12:58:36;101129.88;;;10.25;70.59